EYPA/PLQ METAR and TAF weather

Enter ICAO airport designator
Station Type Date Time Source
EYPA METAR 2019/06/16 06:50 UTC NOAA

EYPA 160650Z 08007KT 060V130 9999 BKN046 BKN160 19/15 Q1013


Station Type Date Time Source
EYPA Decoded METAR 2019/06/16 06:50 UTC NOAA

Palanga Intl., Lithuania (EYPA) 55-55-12N 021-03E
Jun 16, 2019 - 02:50 AM EDT / 2019.06.16 0650 UTC
Wind: from the E (080 degrees) at 8 MPH (7 KT) (direction variable):0
Visibility: greater than 7 mile(s):0
Sky conditions: mostly cloudy
Temperature: 66 F (19 C)
Dew Point: 59 F (15 C)
Relative Humidity: 77%
Pressure (altimeter): 29.91 in. Hg (1013 hPa)
ob: EYPA 160650Z 08007KT 060V130 9999 BKN046 BKN160 19/15 Q1013
cycle: 7

Station Type Date Time Source
EYPA TAF 2019/06/16 06:09 UTC NOAA

TAF TAF EYPA 160506Z 1606/1706 09014KT 9000 BKN010 BKN020
TEMPO 1606/1610 VRB30KT 3000 TSRA SCT005 BKN015CB
FM161000 24014KT
TEMPO 1610/1615 4000 SHRA BKN005 BKN015CB
FM161500 5000 BR BKN005
TEMPO 1615/1703 1500 BKN002

Example: see airport list